createdAt,value
2019-02-28T00:00:49.863Z,64.21
2019-02-28T00:01:49.890Z,64.02
2019-02-28T00:02:49.898Z,63.64
2019-02-28T00:03:49.917Z,63.20
2019-02-28T00:04:49.929Z,62.08
2019-02-28T00:05:49.964Z,61.04
2019-02-28T00:06:49.977Z,60.91
2019-02-28T00:07:50.554Z,61.86
2019-02-28T00:08:50.998Z,62.05
2019-02-28T00:09:50.038Z,61.96
2019-02-28T00:10:50.045Z,61.38
2019-02-28T00:11:50.068Z,61.00
2019-02-28T00:12:50.078Z,61.96
2019-02-28T00:13:52.330Z,62.68
2019-02-28T00:14:50.110Z,63.45
2019-02-28T00:15:50.124Z,63.35
2019-02-28T00:16:50.147Z,63.83
2019-02-28T00:17:50.163Z,63.73
2019-02-28T00:18:50.624Z,63.92
2019-02-28T00:19:50.236Z,62.91
2019-02-28T00:20:50.216Z,62.05
2019-02-28T00:21:50.233Z,61.51
2019-02-28T00:22:50.266Z,60.94
2019-02-28T00:23:50.268Z,60.81
2019-02-28T00:24:50.285Z,62.49
2019-02-28T00:25:50.302Z,64.12
2019-02-28T00:26:50.333Z,64.50
2019-02-28T00:27:52.675Z,64.40
2019-02-28T00:28:50.360Z,64.31
2019-02-28T00:29:50.428Z,65.89
2019-02-28T00:30:50.393Z,66.37
2019-02-28T00:31:50.783Z,66.27
2019-02-28T00:32:50.463Z,66.27
2019-02-28T00:33:50.438Z,66.37
2019-02-28T00:34:50.461Z,67.03
2019-02-28T00:35:50.483Z,67.13
2019-02-28T00:36:53.345Z,66.75
2019-02-28T00:37:50.525Z,67.03
2019-02-28T00:38:50.528Z,67.51
2019-02-28T00:39:50.545Z,67.32
2019-02-28T00:40:50.584Z,68.46
2019-02-28T00:41:50.582Z,68.46
2019-02-28T00:42:50.815Z,68.56
2019-02-28T00:43:50.623Z,68.02
2019-02-28T00:44:50.640Z,67.74
2019-02-28T00:45:50.662Z,67.70
2019-02-28T00:46:50.667Z,67.99
2019-02-28T00:47:50.705Z,68.75
2019-02-28T00:48:53.024Z,69.32
2019-02-28T00:49:50.716Z,69.04
2019-02-28T00:50:50.737Z,69.51
2019-02-28T00:51:50.754Z,69.35
2019-02-28T00:52:50.782Z,68.78
2019-02-28T00:53:50.790Z,69.07
2019-02-28T00:54:50.809Z,69.23
2019-02-28T00:55:50.828Z,69.26
2019-02-28T00:56:52.467Z,68.50
2019-02-28T00:57:50.856Z,68.50
2019-02-28T00:58:50.875Z,68.50
2019-02-28T00:59:50.893Z,68.69
2019-02-28T01:00:50.910Z,69.04
2019-02-28T01:01:50.930Z,69.13
2019-02-28T01:02:53.458Z,69.07
2019-02-28T01:03:50.963Z,68.27
2019-02-28T01:04:50.993Z,68.94
2019-02-28T01:05:50.995Z,69.13
2019-02-28T01:06:51.012Z,68.56
2019-02-28T01:07:51.033Z,68.18
2019-02-28T01:08:52.979Z,67.16
2019-02-28T01:09:51.071Z,66.31
2019-02-28T01:10:51.089Z,67.03
2019-02-28T01:11:51.150Z,67.55
2019-02-28T01:12:54.396Z,68.08
2019-02-28T01:13:51.140Z,67.83
2019-02-28T01:14:51.149Z,67.61
2019-02-28T01:15:51.178Z,68.65
2019-02-28T01:16:53.085Z,69.42
2019-02-28T01:17:51.202Z,69.32
2019-02-28T01:18:51.226Z,69.70
2019-02-28T01:19:51.236Z,69.79
2019-02-28T01:20:51.257Z,69.23
2019-02-28T01:21:51.279Z,69.51
2019-02-28T01:22:51.289Z,69.51
2019-02-28T01:23:51.306Z,70.43
2019-02-28T01:24:51.326Z,70.27
2019-02-28T01:25:51.343Z,70.08
2019-02-28T01:26:51.369Z,70.65
2019-02-28T01:27:52.451Z,70.47
2019-02-28T01:28:51.395Z,71.09
2019-02-28T01:29:51.419Z,71.47
2019-02-28T01:30:51.427Z,71.13
2019-02-28T01:31:51.516Z,70.65
2019-02-28T01:32:51.461Z,71.03
2019-02-28T01:33:51.487Z,71.95
2019-02-28T01:34:51.512Z,72.62
2019-02-28T01:35:51.529Z,72.75
2019-02-28T01:36:51.541Z,71.22
2019-02-28T01:37:52.443Z,70.12
2019-02-28T01:38:51.566Z,69.83
2019-02-28T01:39:51.584Z,69.54
2019-02-28T01:40:51.609Z,69.45
2019-02-28T01:41:51.629Z,69.74
2019-02-28T01:42:54.922Z,70.31
2019-02-28T01:43:51.652Z,70.02
2019-02-28T01:44:51.680Z,69.45
2019-02-28T01:45:51.696Z,70.12
2019-02-28T01:46:51.700Z,71.07
2019-02-28T01:47:52.402Z,70.50
2019-02-28T01:48:54.573Z,69.64
2019-02-28T01:49:51.758Z,70.21
2019-02-28T01:50:51.780Z,71.07
2019-02-28T01:51:51.806Z,71.70
2019-02-28T01:52:51.809Z,71.26
2019-02-28T01:53:53.567Z,70.88
2019-02-28T01:54:51.838Z,70.25
2019-02-28T01:55:51.881Z,69.77
2019-02-28T01:56:51.890Z,69.20
2019-02-28T01:57:51.901Z,69.39
2019-02-28T01:58:51.911Z,69.20
2019-02-28T01:59:52.869Z,69.01
2019-02-28T02:00:53.616Z,69.10
2019-02-28T02:01:51.973Z,69.29
2019-02-28T02:02:51.985Z,70.02
2019-02-28T02:03:52.019Z,69.54
2019-02-28T02:04:52.015Z,70.50
2019-02-28T02:05:52.523Z,69.77
2019-02-28T02:06:52.055Z,70.02
2019-02-28T02:07:52.069Z,71.17
2019-02-28T02:08:52.094Z,71.70
2019-02-28T02:09:52.123Z,71.83
2019-02-28T02:10:54.883Z,72.08
2019-02-28T02:11:52.134Z,72.21
2019-02-28T02:12:52.163Z,71.36
2019-02-28T02:13:52.206Z,72.08
2019-02-28T02:14:52.188Z,72.21
2019-02-28T02:15:52.204Z,71.26
2019-02-28T02:16:52.212Z,70.78
2019-02-28T02:17:52.228Z,71.17
2019-02-28T02:18:52.246Z,70.44
2019-02-28T02:19:52.791Z,69.87
2019-02-28T02:20:52.288Z,70.31
2019-02-28T02:21:52.297Z,69.77
2019-02-28T02:22:52.316Z,70.12
2019-02-28T02:23:53.069Z,70.88
2019-02-28T02:24:52.346Z,71.07
2019-02-28T02:25:52.366Z,71.55
2019-02-28T02:26:52.386Z,71.70
2019-02-28T02:27:53.230Z,72.31
2019-02-28T02:28:52.418Z,71.55
2019-02-28T02:29:52.426Z,70.40
2019-02-28T02:30:52.445Z,70.78
2019-02-28T02:31:52.490Z,72.08
2019-02-28T02:32:52.486Z,72.94
2019-02-28T02:33:52.802Z,72.37
2019-02-28T02:34:52.517Z,72.31
2019-02-28T02:35:52.547Z,72.21
2019-02-28T02:36:54.313Z,71.36
2019-02-28T02:37:52.566Z,71.36
2019-02-28T02:38:52.580Z,71.36
2019-02-28T02:39:52.601Z,70.97
2019-02-28T02:40:58.998Z,70.59
2019-02-28T02:41:52.642Z,71.55
2019-02-28T02:42:52.655Z,71.07
2019-02-28T02:43:55.076Z,71.17
2019-02-28T02:44:52.694Z,71.26
2019-02-28T02:45:52.701Z,71.17
2019-02-28T02:46:56.055Z,71.07
2019-02-28T02:47:52.739Z,71.80
2019-02-28T02:48:52.769Z,73.22
2019-02-28T02:49:57.475Z,73.51
2019-02-28T02:50:52.805Z,73.41
2019-02-28T02:51:52.796Z,73.51
2019-02-28T02:53:52.841Z,72.12
2019-02-28T02:54:53.027Z,72.12
2019-02-28T02:55:52.863Z,72.02
2019-02-28T02:56:52.886Z,71.93
2019-02-28T02:57:52.902Z,71.64
2019-02-28T02:58:52.958Z,72.65
2019-02-28T02:59:52.930Z,73.47
2019-02-28T03:00:52.955Z,74.18
2019-02-28T03:01:56.147Z,74.65
2019-02-28T03:02:52.983Z,74.75
2019-02-28T03:03:52.999Z,74.18
2019-02-28T03:04:57.885Z,74.84
2019-02-28T03:05:53.027Z,74.62
2019-02-28T03:06:53.056Z,75.95
2019-02-28T03:07:59.498Z,77.09
2019-02-28T03:08:53.080Z,76.71
2019-02-28T03:09:53.103Z,76.23
2019-02-28T03:10:53.295Z,76.61
2019-02-28T03:11:53.138Z,76.71
2019-02-28T03:12:53.142Z,76.71
2019-02-28T03:13:53.167Z,77.00
2019-02-28T03:14:53.199Z,75.85
2019-02-28T03:15:53.271Z,76.42
2019-02-28T03:17:53.239Z,74.65
2019-02-28T03:18:56.889Z,74.62
2019-02-28T03:19:53.267Z,75.19
2019-02-28T03:20:53.284Z,76.61
2019-02-28T03:21:53.301Z,76.81
2019-02-28T03:22:53.320Z,75.67
2019-02-28T03:23:53.328Z,75.95
2019-02-28T03:24:53.348Z,75.67
2019-02-28T03:25:53.373Z,75.09
2019-02-28T03:26:53.379Z,74.84
2019-02-28T03:27:56.384Z,74.80
2019-02-28T03:28:53.423Z,76.14
2019-02-28T03:29:53.426Z,75.76
2019-02-28T03:30:53.447Z,75.19
2019-02-28T03:31:56.572Z,74.99
2019-02-28T03:32:53.479Z,75.09
2019-02-28T03:33:53.492Z,74.75
2019-02-28T03:34:58.035Z,74.46
2019-02-28T03:35:53.608Z,74.27
2019-02-28T03:36:56.971Z,74.24
2019-02-28T03:37:53.560Z,74.65
2019-02-28T03:38:53.576Z,73.89
2019-02-28T03:40:02.515Z,73.61
2019-02-28T03:40:53.632Z,73.51
2019-02-28T03:41:54.259Z,74.80
2019-02-28T03:42:53.647Z,76.04
2019-02-28T03:43:53.662Z,75.47
2019-02-28T03:44:57.077Z,74.90
2019-02-28T03:45:53.687Z,74.99
2019-02-28T03:46:53.708Z,75.85
2019-02-28T03:47:58.373Z,75.19
2019-02-28T03:48:53.733Z,74.56
2019-02-28T03:49:53.749Z,74.08
2019-02-28T03:50:55.383Z,73.61
2019-02-28T03:51:53.785Z,74.62
2019-02-28T03:52:53.792Z,75.09
2019-02-28T03:53:55.930Z,75.57
2019-02-28T03:54:53.828Z,75.28
2019-02-28T03:55:53.847Z,75.28
2019-02-28T03:56:53.885Z,75.47
2019-02-28T03:57:53.881Z,75.38
2019-02-28T03:58:53.895Z,76.48
2019-02-28T03:59:56.791Z,77.81
2019-02-28T04:00:53.986Z,78.38
2019-02-28T04:01:53.947Z,78.38
2019-02-28T04:02:58.772Z,77.00
2019-02-28T04:03:53.974Z,76.23
2019-02-28T04:04:53.994Z,76.52
2019-02-28T04:05:54.007Z,76.23
2019-02-28T04:06:54.029Z,76.39
2019-02-28T04:07:55.087Z,76.14
2019-02-28T04:08:54.068Z,75.85
2019-02-28T04:09:54.076Z,75.76
2019-02-28T04:10:55.709Z,75.28
2019-02-28T04:11:54.106Z,74.71
2019-02-28T04:12:54.122Z,75.28
2019-02-28T04:14:54.156Z,74.24
2019-02-28T04:16:07.553Z,74.52
2019-02-28T04:16:54.589Z,74.33
2019-02-28T04:17:54.231Z,74.33
2019-02-28T04:18:54.231Z,74.43
2019-02-28T04:19:58.633Z,74.71
2019-02-28T04:20:54.318Z,74.52
2019-02-28T04:21:54.271Z,74.43
2019-02-28T04:22:58.772Z,75.09
2019-02-28T04:23:54.302Z,75.09
2019-02-28T04:24:54.312Z,74.71
2019-02-28T04:25:56.818Z,74.33
2019-02-28T04:26:54.350Z,74.04
2019-02-28T04:27:54.433Z,73.32
2019-02-28T04:28:54.964Z,73.38
2019-02-28T04:29:54.395Z,74.90
2019-02-28T04:30:54.414Z,74.71
2019-02-28T04:31:54.431Z,74.43
2019-02-28T04:32:54.441Z,73.95
2019-02-28T04:33:54.462Z,73.95
2019-02-28T04:34:54.481Z,73.57
2019-02-28T04:35:56.898Z,73.66
2019-02-28T04:36:54.503Z,73.85
2019-02-28T04:37:54.521Z,73.66
2019-02-28T04:38:54.539Z,73.47
2019-02-28T04:39:54.549Z,74.33
2019-02-28T04:40:54.577Z,74.67
2019-02-28T04:41:54.590Z,75.19
2019-02-28T04:42:54.653Z,74.67
2019-02-28T04:43:54.616Z,74.71
2019-02-28T04:44:54.637Z,74.71
2019-02-28T04:45:57.697Z,74.58
2019-02-28T04:46:54.669Z,75.15
2019-02-28T04:47:54.699Z,74.90
2019-02-28T04:48:54.698Z,74.71
2019-02-28T04:49:57.006Z,74.43
2019-02-28T04:50:54.747Z,73.57
2019-02-28T04:51:54.753Z,73.66
2019-02-28T04:52:54.814Z,73.76
2019-02-28T04:53:54.793Z,74.43
2019-02-28T04:54:54.801Z,74.43
2019-02-28T04:55:54.806Z,74.14
2019-02-28T04:56:54.827Z,74.14
2019-02-28T04:57:54.850Z,73.47
2019-02-28T04:58:56.497Z,73.38
2019-02-28T04:59:54.877Z,74.14
2019-02-28T05:00:54.907Z,75.24
2019-02-28T05:01:54.921Z,75.09
2019-02-28T05:02:55.098Z,74.77
2019-02-28T05:03:54.942Z,74.71
2019-02-28T05:04:54.977Z,74.10
2019-02-28T05:05:54.966Z,75.34
2019-02-28T05:06:55.155Z,75.34
2019-02-28T05:07:55.008Z,76.01
2019-02-28T05:08:55.046Z,77.01
2019-02-28T05:10:55.852Z,77.68
2019-02-28T05:11:55.085Z,77.53
2019-02-28T05:12:55.093Z,76.29
2019-02-28T05:13:55.106Z,76.10
2019-02-28T05:14:55.267Z,74.43
2019-02-28T05:15:55.137Z,74.71
2019-02-28T05:16:55.142Z,74.33
2019-02-28T05:17:56.030Z,74.43
2019-02-28T05:18:55.186Z,74.14
2019-02-28T05:19:55.275Z,73.57
2019-02-28T05:20:55.211Z,73.95
2019-02-28T05:21:55.253Z,72.90
2019-02-28T05:22:55.241Z,73.10
2019-02-28T05:23:55.259Z,73.38
2019-02-28T05:24:55.288Z,74.04
2019-02-28T05:25:55.291Z,73.85
2019-02-28T05:26:57.250Z,73.47
2019-02-28T05:27:55.335Z,73.00
2019-02-28T05:28:55.357Z,72.81
2019-02-28T05:29:55.361Z,73.00
2019-02-28T05:30:55.378Z,73.00
2019-02-28T05:31:58.130Z,73.44
2019-02-28T05:32:55.413Z,73.95
2019-02-28T05:33:55.421Z,73.72
2019-02-28T05:34:55.510Z,73.38
2019-02-28T05:35:57.151Z,73.28
2019-02-28T05:36:55.464Z,73.00
2019-02-28T05:37:55.488Z,73.10
2019-02-28T05:38:56.530Z,73.10
2019-02-28T05:39:55.530Z,73.00
2019-02-28T05:40:55.604Z,72.90
2019-02-28T05:41:55.687Z,72.24
2019-02-28T05:42:58.507Z,72.33
2019-02-28T05:43:55.575Z,72.62
2019-02-28T05:44:55.630Z,72.52
2019-02-28T05:45:55.616Z,72.71
2019-02-28T05:46:58.135Z,72.33
2019-02-28T05:47:55.634Z,73.00
2019-02-28T05:48:55.648Z,72.81
2019-02-28T05:49:55.671Z,73.38
2019-02-28T05:50:55.689Z,73.53
2019-02-28T05:52:55.714Z,73.72
2019-02-28T05:53:55.728Z,73.47
2019-02-28T05:54:57.743Z,72.90
2019-02-28T05:55:59.012Z,73.72
2019-02-28T05:56:55.773Z,74.87
2019-02-28T05:57:55.793Z,74.73
2019-02-28T05:58:55.803Z,75.53
2019-02-28T06:00:01.225Z,74.96
2019-02-28T06:00:55.835Z,74.20
2019-02-28T06:01:55.864Z,73.91
2019-02-28T06:02:58.088Z,74.39
2019-02-28T06:03:55.883Z,73.38
2019-02-28T06:04:55.899Z,73.47
2019-02-28T06:05:55.917Z,73.53
2019-02-28T06:06:55.940Z,73.63
2019-02-28T06:07:55.946Z,73.47
2019-02-28T06:08:55.966Z,73.25
2019-02-28T06:09:55.994Z,73.38
2019-02-28T06:10:59.994Z,73.57
2019-02-28T06:11:56.018Z,73.25
2019-02-28T06:12:56.028Z,73.47
2019-02-28T06:15:02.181Z,73.28
2019-02-28T06:15:56.112Z,73.38
2019-02-28T06:16:56.130Z,74.10
2019-02-28T06:17:56.145Z,74.20
2019-02-28T06:18:56.215Z,74.77
2019-02-28T06:19:56.189Z,74.29
2019-02-28T06:21:17.208Z,74.96
2019-02-28T06:21:56.301Z,74.48
2019-02-28T06:22:56.195Z,74.43
2019-02-28T06:23:56.197Z,73.72
2019-02-28T06:24:56.219Z,74.48
2019-02-28T06:25:59.263Z,74.67
2019-02-28T06:26:57.023Z,74.20
2019-02-28T06:27:56.264Z,74.67
2019-02-28T06:29:56.296Z,75.15
2019-02-28T06:30:56.333Z,74.87
2019-02-28T06:31:56.374Z,74.77
2019-02-28T06:32:59.198Z,74.67
2019-02-28T06:33:56.462Z,74.67
2019-02-28T06:34:56.386Z,74.48
2019-02-28T06:35:56.393Z,74.10
2019-02-28T06:36:56.410Z,74.20
2019-02-28T06:37:56.438Z,73.44
2019-02-28T06:38:56.445Z,73.10
2019-02-28T06:39:58.599Z,73.00
2019-02-28T06:40:56.477Z,73.00
2019-02-28T06:41:56.483Z,73.53
2019-02-28T06:43:56.518Z,72.90
2019-02-28T06:44:58.739Z,72.62
2019-02-28T06:45:56.552Z,72.52
2019-02-28T06:46:56.566Z,73.00
2019-02-28T06:47:56.576Z,73.44
2019-02-28T06:49:00.857Z,74.39
2019-02-28T06:49:56.621Z,74.29
2019-02-28T06:50:56.630Z,74.33
2019-02-28T06:51:56.643Z,73.91
2019-02-28T06:52:59.367Z,73.53
2019-02-28T06:53:56.784Z,73.57
2019-02-28T06:54:56.707Z,73.19
2019-02-28T06:55:56.712Z,73.72
2019-02-28T06:56:56.725Z,74.39
2019-02-28T06:57:58.889Z,74.67
2019-02-28T06:58:56.751Z,74.24
2019-02-28T06:59:56.781Z,73.28
2019-02-28T07:00:56.788Z,73.00
2019-02-28T07:01:57.704Z,73.57
2019-02-28T07:02:56.832Z,73.47
2019-02-28T07:03:56.936Z,73.19
2019-02-28T07:04:56.854Z,72.42
2019-02-28T07:05:57.674Z,73.00
2019-02-28T07:06:56.892Z,72.52
2019-02-28T07:07:56.901Z,72.52
2019-02-28T07:09:02.150Z,72.14
2019-02-28T07:09:56.929Z,72.52
2019-02-28T07:10:56.954Z,72.96
2019-02-28T07:11:56.963Z,73.44
2019-02-28T07:12:56.976Z,73.82
2019-02-28T07:13:57.083Z,74.24
2019-02-28T07:14:57.017Z,73.63
2019-02-28T07:15:59.095Z,73.95
2019-02-28T07:16:57.039Z,73.00
2019-02-28T07:17:57.058Z,73.00
2019-02-28T07:18:57.070Z,72.33
2019-02-28T07:20:01.316Z,71.03
2019-02-28T07:20:57.105Z,71.32
2019-02-28T07:21:57.121Z,71.38
2019-02-28T07:22:57.134Z,71.38
2019-02-28T07:23:57.161Z,70.65
2019-02-28T07:24:57.181Z,70.27
2019-02-28T07:25:57.183Z,69.60
2019-02-28T07:26:57.205Z,69.07
2019-02-28T07:27:57.216Z,68.98
2019-02-28T07:28:57.231Z,68.30
2019-02-28T07:29:57.245Z,67.68
2019-02-28T07:30:57.264Z,67.45
2019-02-28T07:32:01.208Z,67.45
2019-02-28T07:32:57.303Z,68.12
2019-02-28T07:33:57.307Z,67.20
2019-02-28T07:34:58.218Z,66.44
2019-02-28T07:35:57.395Z,66.63
2019-02-28T07:36:57.360Z,66.15
2019-02-28T07:37:57.378Z,65.77
2019-02-28T07:38:57.895Z,65.13
2019-02-28T07:39:57.421Z,64.65
2019-02-28T07:40:57.426Z,64.47
2019-02-28T07:42:57.584Z,64.47
2019-02-28T07:43:59.039Z,64.72
2019-02-28T07:44:58.032Z,65.23
2019-02-28T07:45:57.510Z,65.61
2019-02-28T07:46:57.540Z,65.77
2019-02-28T07:47:57.546Z,67.16
2019-02-28T07:48:57.569Z,67.29
2019-02-28T07:49:57.573Z,67.48
2019-02-28T07:50:59.219Z,67.20
2019-02-28T07:51:57.985Z,66.91
2019-02-28T07:52:57.656Z,66.44
2019-02-28T07:53:57.665Z,65.86
2019-02-28T07:54:57.657Z,65.04
2019-02-28T07:55:57.702Z,64.85
2019-02-28T07:56:57.710Z,64.53
2019-02-28T07:57:57.732Z,65.86
2019-02-28T07:58:57.719Z,65.67
2019-02-28T07:59:57.739Z,65.86
2019-02-28T08:00:57.770Z,65.52
2019-02-28T08:01:59.962Z,65.33
2019-02-28T08:02:57.845Z,64.56
2019-02-28T08:03:57.806Z,64.40
2019-02-28T08:04:57.821Z,63.64
2019-02-28T08:05:57.942Z,63.73
2019-02-28T08:06:57.858Z,63.39
2019-02-28T08:07:57.877Z,61.32
2019-02-28T08:08:57.898Z,57.93
2019-02-28T08:09:58.126Z,54.70
2019-02-28T08:10:57.923Z,50.89
2019-02-28T08:11:57.968Z,49.74
2019-02-28T08:12:57.976Z,49.57
2019-02-28T08:13:57.989Z,49.43
2019-02-28T08:14:57.994Z,50.74
2019-02-28T08:16:00.199Z,52.73
2019-02-28T08:16:58.046Z,53.85
2019-02-28T08:17:58.050Z,54.88
2019-02-28T08:18:58.078Z,56.95
2019-02-28T08:19:59.569Z,58.48
2019-02-28T08:20:58.110Z,58.86
2019-02-28T08:21:58.130Z,58.00
2019-02-28T08:22:58.145Z,57.26
2019-02-28T08:23:58.178Z,57.26
2019-02-28T08:24:58.184Z,56.40
2019-02-28T08:25:58.209Z,55.86
2019-02-28T08:26:58.225Z,55.74
2019-02-28T08:27:59.719Z,55.38
2019-02-28T08:28:58.269Z,54.61
2019-02-28T08:29:58.310Z,54.07
2019-02-28T08:30:58.300Z,52.18
2019-02-28T08:31:58.329Z,51.70
2019-02-28T08:32:58.353Z,51.70
2019-02-28T08:33:58.349Z,52.20
2019-02-28T08:34:59.534Z,51.42
2019-02-28T08:35:58.416Z,51.51
2019-02-28T08:36:58.428Z,50.70
2019-02-28T08:37:58.448Z,48.44
2019-02-28T08:38:58.455Z,47.13
2019-02-28T08:39:58.468Z,46.09
2019-02-28T08:40:58.487Z,45.52
2019-02-28T08:42:04.373Z,46.96
2019-02-28T08:42:58.543Z,48.09
2019-02-28T08:43:58.569Z,43.97
2019-02-28T08:44:59.199Z,42.12
2019-02-28T08:45:58.581Z,42.22
2019-02-28T08:46:58.605Z,42.85
2019-02-28T08:47:58.643Z,43.79
2019-02-28T08:48:58.643Z,44.10
2019-02-28T08:49:58.666Z,43.26
2019-02-28T08:50:58.697Z,42.66
2019-02-28T08:51:58.708Z,43.26
2019-02-28T08:52:58.728Z,43.43
2019-02-28T08:53:58.773Z,43.23
2019-02-28T08:54:59.698Z,43.35
2019-02-28T08:55:58.781Z,43.45
2019-02-28T08:56:58.817Z,43.16
2019-02-28T08:58:05.310Z,42.97
2019-02-28T08:58:58.840Z,42.87
2019-02-28T08:59:58.864Z,42.97
2019-02-28T09:00:58.884Z,42.87
2019-02-28T09:01:58.957Z,44.10
2019-02-28T09:03:00.738Z,44.87
2019-02-28T09:03:59.853Z,45.40
2019-02-28T09:04:58.970Z,45.50
2019-02-28T09:06:00.881Z,45.71
2019-02-28T09:06:59.010Z,45.15
2019-02-28T09:07:59.039Z,43.84
2019-02-28T09:08:59.873Z,42.65
2019-02-28T09:10:59.103Z,36.80
2019-02-28T09:11:59.197Z,32.81
2019-02-28T09:12:59.152Z,33.48
2019-02-28T09:13:59.168Z,34.70
2019-02-28T09:14:59.188Z,34.41
2019-02-28T09:16:01.972Z,33.67
2019-02-28T09:16:59.231Z,33.26
2019-02-28T09:17:59.673Z,33.63
2019-02-28T09:19:00.954Z,32.52
2019-02-28T09:19:59.302Z,33.54
2019-02-28T09:20:59.324Z,34.50
2019-02-28T09:21:59.348Z,32.64
2019-02-28T09:23:02.178Z,31.09
2019-02-28T09:23:59.504Z,31.73
2019-02-28T09:24:59.414Z,34.24
2019-02-28T09:25:59.435Z,37.77
2019-02-28T09:27:01.333Z,38.35
2019-02-28T09:27:59.504Z,37.70
2019-02-28T09:28:59.523Z,37.79
2019-02-28T09:29:59.539Z,36.19
2019-02-28T09:31:59.587Z,34.66
2019-02-28T09:32:59.601Z,37.74
2019-02-28T09:33:59.831Z,40.14
2019-02-28T09:35:02.501Z,38.87
2019-02-28T09:35:59.680Z,36.67
2019-02-28T09:36:59.694Z,36.75
2019-02-28T09:38:03.275Z,35.37
2019-02-28T09:38:59.752Z,33.45
2019-02-28T09:39:59.759Z,34.08
2019-02-28T09:41:01.355Z,36.99
2019-02-28T09:41:59.802Z,39.93
2019-02-28T09:42:59.847Z,42.20
2019-02-28T09:44:00.354Z,43.43
2019-02-28T09:44:59.879Z,43.91
2019-02-28T09:45:59.897Z,44.02
2019-02-28T09:46:59.926Z,43.85
2019-02-28T09:48:01.988Z,42.24
2019-02-28T09:49:00.060Z,41.59
2019-02-28T09:50:00.011Z,40.94
2019-02-28T09:51:00.048Z,39.99
2019-02-28T09:52:00.040Z,38.29
2019-02-28T09:53:00.058Z,37.54
2019-02-28T09:54:00.095Z,36.57
2019-02-28T09:55:00.278Z,37.70
2019-02-28T09:56:00.139Z,40.05
2019-02-28T09:57:01.173Z,42.58
2019-02-28T09:58:00.191Z,43.54
2019-02-28T09:59:00.330Z,44.31
2019-02-28T10:00:00.277Z,44.94
2019-02-28T10:01:00.251Z,46.09
2019-02-28T10:02:01.747Z,46.14
2019-02-28T10:03:00.299Z,43.17
2019-02-28T10:04:00.315Z,38.83
2019-02-28T10:05:02.882Z,34.47
2019-02-28T10:06:00.362Z,32.56
2019-02-28T10:07:00.396Z,31.68
2019-02-28T10:08:02.861Z,31.68
2019-02-28T10:09:00.440Z,32.41
2019-02-28T10:10:00.470Z,35.72
2019-02-28T10:11:00.485Z,37.62
2019-02-28T10:12:00.517Z,38.01
2019-02-28T10:13:00.537Z,38.46
2019-02-28T10:14:00.575Z,40.36
2019-02-28T10:15:06.981Z,40.95
2019-02-28T10:16:00.617Z,40.01
2019-02-28T10:17:00.634Z,40.03
2019-02-28T10:18:04.030Z,38.70
2019-02-28T10:19:00.690Z,37.77
2019-02-28T10:20:00.723Z,34.38
2019-02-28T10:21:01.898Z,32.20
2019-02-28T10:22:00.763Z,29.15
2019-02-28T10:23:00.785Z,29.26
2019-02-28T10:24:00.811Z,28.03
2019-02-28T10:25:03.619Z,26.03
2019-02-28T10:26:00.864Z,24.49
2019-02-28T10:27:00.890Z,23.19
2019-02-28T10:28:02.663Z,23.14
2019-02-28T10:29:01.282Z,24.76
2019-02-28T10:30:00.973Z,25.63
2019-02-28T10:31:00.993Z,25.14
2019-02-28T10:32:01.024Z,25.07
2019-02-28T10:33:01.048Z,24.66
2019-02-28T10:35:02.274Z,25.87
2019-02-28T10:36:01.136Z,29.00
2019-02-28T10:37:01.233Z,31.49
2019-02-28T10:38:01.190Z,30.97
2019-02-28T10:39:02.725Z,27.72
2019-02-28T10:40:01.254Z,29.11
2019-02-28T10:41:01.281Z,31.12
2019-02-28T10:42:01.557Z,30.37
2019-02-28T10:44:01.456Z,31.68
2019-02-28T10:45:22.401Z,31.49
2019-02-28T10:46:01.403Z,33.78
2019-02-28T10:47:01.435Z,34.05
2019-02-28T10:48:03.968Z,32.76
2019-02-28T10:49:01.485Z,30.40
2019-02-28T10:50:01.515Z,28.19
2019-02-28T10:51:12.299Z,26.78
2019-02-28T10:52:01.566Z,26.86
2019-02-28T10:53:05.566Z,26.55
2019-02-28T10:54:01.640Z,29.12
2019-02-28T10:55:01.655Z,30.26
2019-02-28T10:56:01.680Z,28.63
2019-02-28T10:57:03.034Z,25.26
2019-02-28T10:58:01.748Z,24.78
2019-02-28T10:59:01.771Z,22.61
2019-02-28T11:00:01.797Z,20.68
2019-02-28T11:01:07.748Z,22.53
2019-02-28T11:02:01.864Z,27.92
2019-02-28T11:03:01.883Z,32.59
2019-02-28T11:04:04.501Z,36.21
2019-02-28T11:05:01.927Z,37.06
2019-02-28T11:06:01.956Z,37.71
2019-02-28T11:07:02.347Z,39.70
2019-02-28T11:08:02.023Z,40.28
2019-02-28T11:09:02.049Z,40.86
2019-02-28T11:11:02.098Z,41.32
2019-02-28T11:12:02.129Z,42.16
2019-02-28T11:13:02.154Z,43.40
2019-02-28T11:14:03.918Z,43.32
2019-02-28T11:15:02.214Z,43.20
2019-02-28T11:17:02.256Z,41.38
2019-02-28T11:18:02.276Z,40.47
2019-02-28T11:19:02.304Z,41.07
2019-02-28T11:20:02.327Z,40.90
2019-02-28T11:21:02.353Z,40.78
2019-02-28T11:22:04.745Z,41.27
2019-02-28T11:24:02.471Z,37.81
2019-02-28T11:25:02.513Z,37.02
2019-02-28T11:26:02.524Z,37.00
2019-02-28T11:27:02.535Z,37.85
2019-02-28T11:28:02.581Z,38.71
2019-02-28T11:29:03.296Z,38.89
2019-02-28T11:30:23.641Z,39.36
2019-02-28T11:31:02.645Z,38.54
2019-02-28T11:32:02.669Z,36.18
2019-02-28T11:33:04.549Z,34.97
2019-02-28T11:34:02.709Z,31.74
2019-02-28T11:35:02.752Z,32.73
2019-02-28T11:36:23.785Z,35.33
2019-02-28T11:37:05.470Z,31.91
2019-02-28T11:38:04.823Z,29.18
2019-02-28T11:39:02.855Z,25.89
2019-02-28T11:40:05.497Z,25.97
2019-02-28T11:41:02.864Z,32.14
2019-02-28T11:42:02.888Z,33.78
2019-02-28T11:43:03.865Z,33.60
2019-02-28T11:44:02.927Z,31.16
2019-02-28T11:45:02.966Z,31.89
2019-02-28T11:46:03.189Z,31.82
2019-02-28T11:47:03.009Z,28.89
2019-02-28T11:48:03.047Z,28.09
2019-02-28T11:49:03.067Z,28.47
2019-02-28T11:50:04.540Z,28.51
2019-02-28T11:51:03.163Z,27.25
2019-02-28T11:52:03.183Z,26.50
2019-02-28T11:53:05.762Z,26.94
2019-02-28T11:54:03.203Z,26.61
2019-02-28T11:55:03.234Z,26.83
2019-02-28T11:56:03.259Z,31.04
2019-02-28T11:57:06.611Z,30.40
2019-02-28T11:58:03.317Z,28.22
2019-02-28T11:59:03.347Z,28.11
2019-02-28T12:00:03.370Z,28.39
2019-02-28T12:01:03.407Z,29.05
2019-02-28T12:02:03.422Z,28.97
2019-02-28T12:03:05.495Z,29.33
2019-02-28T12:04:03.483Z,30.68
2019-02-28T12:05:03.506Z,29.90
2019-02-28T12:06:03.538Z,30.12
2019-02-28T12:07:03.561Z,28.19
2019-02-28T12:08:09.309Z,28.11
2019-02-28T12:09:03.614Z,29.22
2019-02-28T12:10:03.645Z,31.59
2019-02-28T12:11:03.661Z,33.47
2019-02-28T12:12:03.691Z,35.18
2019-02-28T12:13:03.722Z,36.52
2019-02-28T12:14:03.743Z,37.17
2019-02-28T12:15:06.087Z,37.48
2019-02-28T12:16:03.882Z,37.21
2019-02-28T12:17:03.835Z,37.58
2019-02-28T12:18:04.871Z,37.19
2019-02-28T12:19:03.869Z,37.48
2019-02-28T12:20:04.015Z,37.65
2019-02-28T12:21:05.013Z,38.41
2019-02-28T12:22:03.946Z,39.09
2019-02-28T12:23:03.976Z,39.28
2019-02-28T12:24:03.999Z,38.99
2019-02-28T12:25:04.567Z,39.45
2019-02-28T12:26:04.077Z,39.84
2019-02-28T12:27:04.194Z,39.86
2019-02-28T12:28:06.546Z,39.76
2019-02-28T12:29:04.113Z,39.76
2019-02-28T12:30:04.145Z,40.12
2019-02-28T12:31:04.168Z,40.32
2019-02-28T12:32:04.192Z,40.22
2019-02-28T12:33:04.243Z,41.36
2019-02-28T12:34:04.251Z,41.09
2019-02-28T12:36:04.287Z,40.88
2019-02-28T12:37:25.337Z,40.99
2019-02-28T12:38:04.337Z,40.97
2019-02-28T12:39:04.361Z,40.97
2019-02-28T12:40:07.295Z,40.90
2019-02-28T12:42:04.431Z,41.09
2019-02-28T12:43:05.381Z,41.17
2019-02-28T12:44:04.486Z,41.65
2019-02-28T12:45:04.504Z,41.65
2019-02-28T12:46:04.531Z,42.13
2019-02-28T12:47:06.438Z,42.23
2019-02-28T12:48:04.574Z,41.75
2019-02-28T12:49:04.608Z,41.38
2019-02-28T12:50:04.623Z,40.90
2019-02-28T12:51:05.401Z,40.90
2019-02-28T12:52:04.673Z,41.09
2019-02-28T12:53:04.691Z,40.99
2019-02-28T12:54:04.716Z,40.32
2019-02-28T12:55:04.883Z,40.63
2019-02-28T12:56:04.765Z,40.70
2019-02-28T12:57:04.785Z,41.38
2019-02-28T12:58:04.879Z,41.55
2019-02-28T12:59:04.851Z,41.75
2019-02-28T13:00:04.904Z,41.77
2019-02-28T13:01:04.894Z,42.42
2019-02-28T13:02:08.415Z,42.23
2019-02-28T13:03:04.926Z,42.52
2019-02-28T13:04:04.960Z,42.52
2019-02-28T13:05:04.979Z,42.61
2019-02-28T13:06:05.013Z,42.42
2019-02-28T13:07:05.024Z,42.03
2019-02-28T13:08:05.849Z,42.23
2019-02-28T13:09:05.071Z,42.42
2019-02-28T13:10:05.098Z,42.23
2019-02-28T13:11:05.123Z,42.23